Time;durP1;ratioP1;P1;durP2;ratioP2;P2;SDS_P1;SDS_P2;PMS_P1;PMS_P2;Temp;Humidity;BMP_temperature;BMP_pressure;BME280_temperature;BME280_humidity;BME280_pressure;Samples;Min_cycle;Max_cycle;Signal;HPM_P1;HPM_P2
2023/08/21 00:01:03;;;;;;;3.58;1.85;;;15.50;99.90;;;;;;5139406;27;20046;-61
2023/08/21 00:03:29;;;;;;;3.67;1.77;;;15.40;99.90;;;;;;5125786;27;20045;-61
2023/08/21 00:05:55;;;;;;;3.55;1.83;;;15.40;99.90;;;;;;5116172;27;20043;-61
2023/08/21 00:08:21;;;;;;;3.50;1.70;;;15.30;99.90;;;;;;5136739;27;20393;-61
2023/08/21 00:10:47;;;;;;;2.78;1.70;;;15.20;99.90;;;;;;5138207;27;20501;-61
2023/08/21 00:13:13;;;;;;;4.50;1.73;;;15.20;99.90;;;;;;5153334;27;20031;-61
2023/08/21 00:15:39;;;;;;;3.65;1.88;;;15.20;99.90;;;;;;5136046;27;20034;-62
2023/08/21 00:18:05;;;;;;;4.13;2.08;;;15.10;99.90;;;;;;5153448;27;20397;-61
2023/08/21 00:20:31;;;;;;;3.40;1.73;;;15.10;99.90;;;;;;5153121;27;20031;-62
2023/08/21 00:22:57;;;;;;;5.82;1.88;;;15.10;99.90;;;;;;5134916;27;20065;-62
2023/08/21 00:25:22;;;;;;;5.57;1.85;;;15.10;99.90;;;;;;5147616;27;20035;-62
2023/08/21 00:27:48;;;;;;;3.17;1.80;;;15.10;99.90;;;;;;5133926;27;20047;-61
2023/08/21 00:30:17;;;;;;;3.25;1.73;;;15.10;99.90;;;;;;5119545;27;20447;-62
2023/08/21 00:32:42;;;;;;;2.83;2.00;;;15.00;99.90;;;;;;5122263;27;20394;-62
2023/08/21 00:35:08;;;;;;;7.60;2.20;;;15.00;99.90;;;;;;5151759;27;20042;-62
2023/08/21 00:37:34;;;;;;;2.95;1.73;;;15.00;99.90;;;;;;5131572;27;20031;-61
2023/08/21 00:39:59;;;;;;;3.25;1.58;;;15.00;99.90;;;;;;5133753;27;20071;-62
2023/08/21 00:42:25;;;;;;;2.97;1.75;;;15.00;99.90;;;;;;5102004;27;20066;-61
2023/08/21 00:44:51;;;;;;;3.05;1.77;;;15.00;99.90;;;;;;5139730;27;20046;-62
2023/08/21 00:47:17;;;;;;;4.28;1.95;;;15.00;99.90;;;;;;5147555;27;20079;-62
2023/08/21 00:49:43;;;;;;;2.75;1.70;;;15.00;99.90;;;;;;5142701;27;20039;-62
2023/08/21 00:52:11;;;;;;;4.90;1.85;;;14.90;99.90;;;;;;5132490;27;20040;-63
2023/08/21 00:54:37;;;;;;;3.28;1.90;;;14.90;99.90;;;;;;5132657;27;20112;-63
2023/08/21 00:57:04;;;;;;;5.57;1.73;;;14.90;99.90;;;;;;5115189;27;20042;-61
2023/08/21 00:59:30;;;;;;;3.47;2.10;;;14.90;99.90;;;;;;5128919;27;20088;-62
2023/08/21 01:01:56;;;;;;;4.15;1.98;;;14.80;99.90;;;;;;5107946;27;20448;-62
2023/08/21 01:04:22;;;;;;;3.50;1.98;;;14.70;99.90;;;;;;5115574;27;20468;-62
2023/08/21 01:06:51;;;;;;;3.38;1.70;;;14.80;99.90;;;;;;5117168;28;20135;-61
2023/08/21 01:09:41;;;;;;;2.05;1.60;;;14.80;99.90;;;;;;5115287;27;20678;-62
2023/08/21 01:12:27;;;;;;;2.28;1.50;;;14.80;99.90;;;;;;5099181;27;20031;-62
2023/08/21 01:15:12;;;;;;;4.43;1.77;;;14.70;99.90;;;;;;5118731;27;20066;-62
2023/08/21 01:17:39;;;;;;;2.38;1.45;;;14.70;99.90;;;;;;5151700;27;20034;-62
2023/08/21 01:20:09;;;;;;;2.53;1.52;;;14.70;99.90;;;;;;5132834;27;20034;-62
2023/08/21 01:22:40;;;;;;;3.13;1.50;;;14.70;99.90;;;;;;5113866;27;20058;-61
2023/08/21 01:25:06;;;;;;;2.60;1.42;;;14.60;99.90;;;;;;5136293;27;20031;-62
2023/08/21 01:27:34;;;;;;;6.63;2.08;;;14.60;99.90;;;;;;5113218;27;20451;-61
2023/08/21 01:30:02;;;;;;;3.40;2.00;;;14.60;99.90;;;;;;5133066;27;20081;-61
2023/08/21 01:32:48;;;;;;;4.65;1.95;;;14.50;99.90;;;;;;5132833;27;20560;-61
2023/08/21 01:35:14;;;;;;;4.07;1.98;;;14.50;99.90;;;;;;5134336;27;20039;-62
2023/08/21 01:37:40;;;;;;;2.65;1.40;;;14.40;99.90;;;;;;5115696;27;20035;-62
2023/08/21 01:40:07;;;;;;;1.85;1.60;;;14.40;99.90;;;;;;5116240;28;20110;-61
2023/08/21 01:42:32;;;;;;;5.10;2.00;;;14.40;99.90;;;;;;5078190;27;1124153;-62
2023/08/21 01:44:58;;;;;;;4.55;2.30;;;14.40;99.90;;;;;;5125561;27;20035;-61
2023/08/21 01:47:24;;;;;;;4.93;2.20;;;14.30;99.90;;;;;;5153089;27;20087;-62
2023/08/21 01:49:52;;;;;;;4.55;2.20;;;14.30;99.90;;;;;;5127012;27;20425;-62
2023/08/21 01:52:20;;;;;;;4.97;2.00;;;14.30;99.90;;;;;;5139679;27;20030;-62
2023/08/21 01:54:47;;;;;;;3.67;1.95;;;14.20;99.90;;;;;;5133468;27;20081;-63
2023/08/21 01:57:13;;;;;;;5.93;2.30;;;14.30;99.90;;;;;;5124831;27;20045;-61
2023/08/21 01:59:40;;;;;;;5.07;1.70;;;14.20;99.90;;;;;;5125114;27;20043;-62
2023/08/21 02:02:05;;;;;;;4.05;1.70;;;14.20;99.90;;;;;;5134617;27;20035;-62
2023/08/21 02:04:31;;;;;;;4.60;1.85;;;14.20;99.90;;;;;;5140334;27;20042;-62
2023/08/21 02:06:57;;;;;;;3.15;1.90;;;14.20;99.90;;;;;;5114225;27;20046;-61
2023/08/21 02:09:23;;;;;;;2.38;1.63;;;14.10;99.90;;;;;;5131765;27;20046;-62
2023/08/21 02:11:48;;;;;;;4.57;1.58;;;14.10;99.90;;;;;;5123143;27;20031;-61
2023/08/21 02:14:14;;;;;;;4.28;2.22;;;14.00;99.90;;;;;;5123487;27;20035;-62
2023/08/21 02:16:39;;;;;;;2.72;1.77;;;14.00;99.90;;;;;;5132065;27;20363;-61
2023/08/21 02:19:05;;;;;;;5.25;2.55;;;14.00;99.90;;;;;;5132805;27;20069;-63
2023/08/21 02:21:31;;;;;;;4.93;2.38;;;14.00;99.90;;;;;;5139251;27;20046;-62
2023/08/21 02:23:57;;;;;;;4.05;1.60;;;14.00;99.90;;;;;;5133371;27;20033;-62
2023/08/21 02:26:23;;;;;;;4.20;1.77;;;14.00;99.90;;;;;;5133929;27;20039;-62
2023/08/21 02:28:48;;;;;;;3.55;1.95;;;14.00;99.90;;;;;;5148640;27;20155;-61
2023/08/21 02:31:14;;;;;;;3.90;1.90;;;14.00;99.90;;;;;;5148957;27;20035;-62
2023/08/21 02:33:39;;;;;;;2.60;1.77;;;13.90;99.90;;;;;;5114217;27;20047;-61
2023/08/21 02:36:07;;;;;;;3.92;1.83;;;13.90;99.90;;;;;;5132087;27;20035;-61
2023/08/21 02:38:32;;;;;;;3.03;1.90;;;13.80;99.90;;;;;;5152252;27;20492;-62
2023/08/21 02:40:58;;;;;;;2.95;1.80;;;13.80;99.90;;;;;;5147359;27;20047;-62
2023/08/21 02:43:23;;;;;;;3.05;1.90;;;13.80;99.90;;;;;;5130142;27;20043;-61
2023/08/21 02:45:49;;;;;;;3.53;2.00;;;13.80;99.90;;;;;;5115533;27;20032;-61
2023/08/21 02:48:15;;;;;;;1.88;1.77;;;13.80;99.90;;;;;;5109927;28;20043;-61
2023/08/21 02:50:41;;;;;;;5.53;2.22;;;13.70;99.90;;;;;;5101907;28;21365;-61
2023/08/21 02:53:07;;;;;;;4.85;2.05;;;13.70;99.90;;;;;;5101925;28;20040;-62
2023/08/21 02:55:33;;;;;;;3.88;1.98;;;13.70;99.90;;;;;;5110888;28;20039;-61
2023/08/21 02:57:58;;;;;;;3.22;1.92;;;13.70;99.90;;;;;;5107572;28;20039;-62
2023/08/21 03:00:24;;;;;;;4.18;1.88;;;13.80;99.90;;;;;;5111136;28;20463;-62
2023/08/21 03:02:50;;;;;;;3.58;1.70;;;13.80;99.90;;;;;;5095753;27;20054;-61
2023/08/21 03:05:15;;;;;;;3.38;1.85;;;13.80;99.90;;;;;;5091968;27;20071;-61
2023/08/21 03:07:41;;;;;;;3.10;1.70;;;13.70;99.90;;;;;;5110602;28;20063;-61
2023/08/21 03:10:07;;;;;;;3.85;2.25;;;13.80;99.90;;;;;;5103724;28;20048;-62
2023/08/21 03:12:33;;;;;;;3.78;1.90;;;13.70;99.90;;;;;;5103226;28;20050;-61
2023/08/21 03:14:59;;;;;;;2.95;1.77;;;13.70;99.90;;;;;;5126731;28;20485;-61
2023/08/21 03:17:25;;;;;;;3.92;1.85;;;13.70;99.90;;;;;;5131404;28;20031;-61
2023/08/21 03:19:51;;;;;;;3.08;1.90;;;13.70;99.90;;;;;;5127179;28;20058;-62
2023/08/21 03:22:16;;;;;;;4.90;1.77;;;13.60;99.90;;;;;;5105189;28;20094;-63
2023/08/21 03:24:42;;;;;;;1.60;1.50;;;13.60;99.90;;;;;;5109400;28;20069;-62
2023/08/21 03:27:07;;;;;;;1.60;1.50;;;13.60;99.90;;;;;;5105220;28;20367;-62
2023/08/21 03:29:33;;;;;;;3.58;1.80;;;13.50;99.90;;;;;;5110816;28;20122;-62
2023/08/21 03:31:59;;;;;;;3.58;1.90;;;13.40;99.90;;;;;;5107148;28;20093;-61
2023/08/21 03:34:24;;;;;;;2.95;1.67;;;13.40;99.90;;;;;;5110700;28;20497;-62
2023/08/21 03:36:50;;;;;;;2.65;1.63;;;13.40;99.90;;;;;;5107412;28;20040;-61
2023/08/21 03:39:16;;;;;;;2.92;1.63;;;13.40;99.90;;;;;;5109490;28;20048;-62
2023/08/21 03:41:41;;;;;;;4.70;1.83;;;13.40;99.90;;;;;;5100516;28;20052;-60
2023/08/21 03:44:07;;;;;;;4.45;1.88;;;13.40;99.90;;;;;;5108788;28;20055;-61
2023/08/21 03:46:33;;;;;;;2.15;1.92;;;13.40;99.90;;;;;;5126433;28;20039;-62
2023/08/21 03:48:58;;;;;;;1.75;1.52;;;13.40;99.90;;;;;;5120019;28;20047;-61
2023/08/21 03:51:24;;;;;;;3.53;1.60;;;13.40;99.90;;;;;;5111442;28;20040;-62
2023/08/21 03:53:50;;;;;;;3.88;1.95;;;13.40;99.90;;;;;;5112243;28;20042;-61
2023/08/21 03:56:16;;;;;;;2.97;1.70;;;13.30;99.90;;;;;;5108868;28;20039;-63
2023/08/21 03:58:41;;;;;;;2.92;1.70;;;13.30;99.90;;;;;;5110799;28;20035;-61
2023/08/21 04:01:07;;;;;;;5.28;1.80;;;13.30;99.90;;;;;;5109775;28;20048;-62
2023/08/21 04:03:33;;;;;;;2.45;1.23;;;13.30;99.90;;;;;;5113298;28;20047;-61
2023/08/21 04:05:59;;;;;;;3.05;1.38;;;13.30;99.90;;;;;;5116096;28;20567;-62
2023/08/21 04:08:25;;;;;;;1.95;1.70;;;13.30;99.90;;;;;;5119886;28;20474;-62
2023/08/21 04:10:58;;;;;;;2.58;1.40;;;13.30;99.90;;;;;;5124909;27;20031;-63
2023/08/21 04:13:24;;;;;;;2.83;1.25;;;13.20;99.90;;;;;;5114583;27;20078;-61
2023/08/21 04:15:50;;;;;;;2.35;1.30;;;13.30;99.90;;;;;;5115875;27;20067;-61
2023/08/21 04:18:16;;;;;;;3.47;1.60;;;13.30;99.90;;;;;;5112587;27;20444;-61
2023/08/21 04:20:42;;;;;;;3.97;1.58;;;13.30;99.90;;;;;;5116207;27;20096;-62
2023/08/21 04:23:07;;;;;;;2.53;1.67;;;13.30;99.90;;;;;;5115121;27;20050;-61
2023/08/21 04:25:33;;;;;;;3.83;1.40;;;13.20;99.90;;;;;;5116101;27;20101;-61
2023/08/21 04:27:59;;;;;;;3.10;1.50;;;13.20;99.90;;;;;;5112455;28;20054;-61
2023/08/21 04:30:24;;;;;;;1.75;1.45;;;13.20;99.90;;;;;;5117264;27;20035;-62
2023/08/21 04:32:50;;;;;;;2.13;1.33;;;13.20;99.90;;;;;;5114040;28;20449;-62
2023/08/21 04:35:15;;;;;;;2.40;1.20;;;13.20;99.90;;;;;;5127358;27;20035;-61
2023/08/21 04:37:47;;;;;;;2.78;1.42;;;13.20;99.90;;;;;;5128011;27;20077;-61
2023/08/21 04:40:13;;;;;;;4.40;1.50;;;13.20;99.90;;;;;;5113294;28;20055;-61
2023/08/21 04:42:39;;;;;;;2.92;1.27;;;13.20;99.90;;;;;;5117982;27;20062;-62
2023/08/21 04:45:05;;;;;;;2.70;1.40;;;13.20;99.90;;;;;;5115288;27;20039;-61
2023/08/21 04:47:31;;;;;;;2.80;1.60;;;13.20;99.90;;;;;;5146463;27;20047;-62
2023/08/21 04:49:57;;;;;;;2.70;1.42;;;13.20;99.90;;;;;;5137979;27;20062;-62
2023/08/21 04:52:24;;;;;;;5.45;1.60;;;13.20;99.90;;;;;;5105092;27;20062;-61
2023/08/21 04:54:51;;;;;;;4.75;1.10;;;13.30;99.90;;;;;;5122638;27;20548;-61
2023/08/21 04:57:17;;;;;;;2.47;1.40;;;13.30;99.90;;;;;;5149837;27;20066;-61
2023/08/21 04:59:44;;;;;;;2.17;0.93;;;13.30;99.90;;;;;;5145915;27;20039;-61
2023/08/21 05:02:10;;;;;;;2.38;1.20;;;13.30;99.90;;;;;;5154034;27;20031;-62
2023/08/21 05:04:36;;;;;;;2.55;1.35;;;13.30;99.90;;;;;;5129029;27;20658;-62
2023/08/21 05:07:03;;;;;;;2.20;1.20;;;13.40;99.90;;;;;;5123281;27;20095;-62
2023/08/21 05:09:28;;;;;;;1.98;1.00;;;13.40;99.90;;;;;;5105330;27;20054;-62
2023/08/21 05:11:55;;;;;;;2.13;1.20;;;13.40;99.90;;;;;;5153294;27;20034;-61
2023/08/21 05:14:22;;;;;;;3.03;1.20;;;13.40;99.90;;;;;;5117784;27;20046;-61
2023/08/21 05:16:49;;;;;;;3.53;1.30;;;13.40;99.90;;;;;;5127773;27;20039;-62
2023/08/21 05:19:15;;;;;;;3.17;1.30;;;13.50;99.90;;;;;;5115101;27;20047;-61
2023/08/21 05:21:41;;;;;;;3.53;1.20;;;13.50;99.90;;;;;;5124295;27;20056;-62
2023/08/21 05:24:06;;;;;;;1.52;1.20;;;13.60;99.90;;;;;;5134080;27;20051;-62
2023/08/21 05:26:32;;;;;;;2.08;1.17;;;13.60;99.90;;;;;;5121443;27;20051;-62
2023/08/21 05:28:58;;;;;;;1.73;1.00;;;13.70;99.90;;;;;;5133083;27;20119;-63
2023/08/21 05:31:23;;;;;;;1.30;1.10;;;13.70;99.90;;;;;;5122305;27;20039;-62
2023/08/21 05:33:49;;;;;;;2.28;1.00;;;13.80;99.90;;;;;;5114641;27;20031;-63
2023/08/21 05:36:14;;;;;;;3.35;1.08;;;13.80;99.90;;;;;;5118318;27;20042;-62
2023/08/21 05:38:40;;;;;;;2.00;1.20;;;13.90;99.90;;;;;;5135055;27;20038;-62
2023/08/21 05:41:06;;;;;;;4.93;1.70;;;14.00;99.90;;;;;;5131834;27;20042;-62
2023/08/21 05:43:32;;;;;;;3.28;1.42;;;14.10;99.90;;;;;;5150416;27;20134;-61
2023/08/21 05:45:57;;;;;;;3.03;1.52;;;14.20;99.90;;;;;;5147693;27;20135;-61
2023/08/21 05:48:23;;;;;;;3.80;1.40;;;14.30;99.90;;;;;;5116624;27;20043;-61
2023/08/21 05:50:52;;;;;;;2.92;1.52;;;14.50;99.90;;;;;;5135585;27;20034;-62
2023/08/21 05:53:19;;;;;;;2.80;1.38;;;14.60;99.90;;;;;;5133486;27;20077;-62
2023/08/21 05:55:44;;;;;;;1.83;1.40;;;14.70;99.90;;;;;;5134737;27;20066;-63
2023/08/21 05:58:10;;;;;;;1.80;1.60;;;14.80;99.90;;;;;;5136462;27;20070;-62
2023/08/21 06:00:38;;;;;;;3.38;1.60;;;14.90;99.90;;;;;;5117390;27;20034;-62
2023/08/21 06:03:03;;;;;;;7.57;1.80;;;15.00;99.90;;;;;;5129285;27;20027;-62
2023/08/21 06:05:29;;;;;;;3.72;1.50;;;15.20;99.90;;;;;;5152714;27;20034;-61
2023/08/21 06:07:55;;;;;;;2.78;1.70;;;15.30;99.90;;;;;;5127736;27;20109;-62
2023/08/21 06:10:20;;;;;;;3.95;2.03;;;15.40;99.90;;;;;;5113970;27;20070;-62
2023/08/21 06:12:47;;;;;;;2.33;1.75;;;15.60;99.90;;;;;;5120640;27;20042;-62
2023/08/21 06:15:13;;;;;;;4.97;1.80;;;15.70;99.90;;;;;;5114401;27;20046;-61
2023/08/21 06:17:40;;;;;;;2.85;1.50;;;15.90;99.90;;;;;;5113323;27;20034;-61
2023/08/21 06:20:08;;;;;;;2.35;1.80;;;16.00;99.90;;;;;;5114485;27;20043;-63
2023/08/21 06:22:34;;;;;;;4.93;2.42;;;16.20;99.90;;;;;;5112980;27;20117;-61
2023/08/21 06:25:00;;;;;;;3.63;2.35;;;16.30;99.90;;;;;;5132597;27;20121;-62
2023/08/21 06:27:26;;;;;;;3.65;2.53;;;16.50;99.90;;;;;;5133917;27;20047;-61
2023/08/21 06:29:51;;;;;;;4.82;2.60;;;16.60;99.90;;;;;;5148333;27;20049;-62
2023/08/21 06:32:17;;;;;;;4.15;2.80;;;16.80;99.90;;;;;;5134100;27;20035;-62
2023/08/21 06:34:43;;;;;;;6.45;3.17;;;16.90;99.90;;;;;;5127785;27;20386;-62
2023/08/21 06:37:09;;;;;;;4.57;2.75;;;17.10;99.90;;;;;;5113768;27;20038;-63
2023/08/21 06:39:34;;;;;;;7.05;2.60;;;17.30;99.90;;;;;;5117777;27;20111;-62
2023/08/21 06:42:00;;;;;;;4.43;2.72;;;17.50;99.90;;;;;;5131958;27;20031;-62
2023/08/21 06:44:26;;;;;;;5.95;2.78;;;17.70;99.90;;;;;;5136013;27;20084;-62
2023/08/21 06:46:52;;;;;;;5.93;2.30;;;17.80;99.90;;;;;;5124663;27;20038;-63
2023/08/21 06:49:17;;;;;;;7.68;2.38;;;18.00;99.90;;;;;;5125604;27;20043;-62
2023/08/21 06:51:43;;;;;;;8.15;2.80;;;18.20;99.90;;;;;;5123536;27;20042;-62
2023/08/21 06:54:09;;;;;;;5.60;2.20;;;18.40;99.90;;;;;;5125689;27;20469;-61
2023/08/21 06:56:35;;;;;;;7.10;2.47;;;18.60;99.90;;;;;;5119292;27;20039;-63
2023/08/21 06:59:01;;;;;;;7.88;2.85;;;18.70;99.90;;;;;;5150891;27;20031;-62
2023/08/21 07:01:27;;;;;;;7.70;2.60;;;18.70;99.90;;;;;;5135128;27;20443;-61
2023/08/21 07:03:53;;;;;;;8.30;2.70;;;18.80;99.90;;;;;;5112697;27;20043;-63
2023/08/21 07:06:19;;;;;;;4.72;2.28;;;18.90;99.90;;;;;;5123161;27;20035;-62
2023/08/21 07:08:45;;;;;;;6.57;3.00;;;19.00;99.90;;;;;;5133163;27;20050;-63
2023/08/21 07:11:12;;;;;;;10.05;3.33;;;19.20;99.90;;;;;;5145188;27;20031;-62
2023/08/21 07:13:38;;;;;;;10.95;3.10;;;19.40;99.90;;;;;;5114012;27;20046;-62
2023/08/21 07:16:05;;;;;;;6.20;2.40;;;19.50;99.90;;;;;;5149004;27;20033;-62
2023/08/21 07:18:35;;;;;;;6.20;2.80;;;19.70;99.90;;;;;;5140199;27;20042;-62
2023/08/21 07:21:04;;;;;;;7.35;2.92;;;19.90;99.90;;;;;;5133287;27;20046;-62
2023/08/21 07:23:30;;;;;;;5.63;2.40;;;20.00;99.90;;;;;;5132808;27;20110;-62
2023/08/21 07:25:57;;;;;;;7.35;2.60;;;20.10;99.90;;;;;;5132800;27;20047;-62
2023/08/21 07:28:22;;;;;;;6.50;2.45;;;20.20;99.90;;;;;;5114883;28;20059;-62
2023/08/21 07:30:48;;;;;;;5.10;2.00;;;20.40;99.90;;;;;;5112400;27;20047;-63
2023/08/21 07:33:14;;;;;;;4.25;2.00;;;20.50;99.90;;;;;;5114720;27;20039;-62
2023/08/21 07:35:39;;;;;;;5.43;2.03;;;20.60;99.90;;;;;;5112746;27;20062;-62
2023/08/21 07:38:05;;;;;;;6.47;1.95;;;20.80;99.90;;;;;;5138496;27;20034;-61
2023/08/21 07:40:31;;;;;;;5.43;2.10;;;20.80;99.90;;;;;;5131332;27;20110;-63
2023/08/21 07:42:57;;;;;;;6.65;1.88;;;20.90;99.90;;;;;;5116899;27;20092;-62
2023/08/21 07:45:22;;;;;;;4.30;1.50;;;21.00;99.90;;;;;;5130907;27;20151;-62
2023/08/21 07:47:48;;;;;;;4.38;1.30;;;21.20;99.90;;;;;;5122554;27;20377;-62
2023/08/21 07:50:16;;;;;;;5.07;1.33;;;21.40;99.90;;;;;;5119418;27;20039;-61
2023/08/21 07:52:42;;;;;;;4.78;1.63;;;21.40;99.90;;;;;;5134961;27;20058;-62
2023/08/21 07:55:08;;;;;;;5.05;1.27;;;21.50;99.90;;;;;;5120310;27;20477;-62
2023/08/21 07:57:33;;;;;;;3.95;1.27;;;21.70;99.90;;;;;;5138378;27;20031;-63
2023/08/21 07:59:59;;;;;;;3.92;1.10;;;21.80;99.90;;;;;;5121693;27;20035;-62
2023/08/21 08:02:25;;;;;;;3.33;1.27;;;21.90;99.90;;;;;;5134817;27;20379;-62
2023/08/21 08:04:50;;;;;;;3.15;1.00;;;22.00;99.90;;;;;;5121693;27;20035;-62
2023/08/21 08:07:16;;;;;;;2.22;0.93;;;22.10;99.90;;;;;;5134552;27;20042;-62
2023/08/21 08:09:41;;;;;;;3.78;0.93;;;22.10;99.90;;;;;;5137298;27;20078;-62
2023/08/21 08:12:07;;;;;;;5.68;1.85;;;22.20;99.90;;;;;;5135388;27;20134;-62
2023/08/21 08:14:33;;;;;;;4.57;1.20;;;22.20;99.90;;;;;;5136818;27;20038;-62
2023/08/21 08:16:58;;;;;;;2.97;1.10;;;22.20;99.90;;;;;;5128314;27;20058;-62
2023/08/21 08:19:24;;;;;;;5.72;1.20;;;22.20;99.90;;;;;;5135969;27;20030;-61
2023/08/21 08:21:50;;;;;;;5.03;1.42;;;22.30;99.90;;;;;;5119518;27;20451;-62
2023/08/21 08:24:15;;;;;;;4.65;1.25;;;22.50;99.90;;;;;;5115676;27;20035;-62
2023/08/21 08:26:42;;;;;;;4.35;1.45;;;22.60;99.90;;;;;;5118339;27;20039;-62
2023/08/21 08:29:09;;;;;;;6.53;1.98;;;22.80;99.90;;;;;;5123114;27;20057;-62
2023/08/21 08:31:34;;;;;;;3.25;1.13;;;23.00;99.90;;;;;;5130218;27;20485;-62
2023/08/21 08:34:01;;;;;;;4.40;1.10;;;23.00;99.90;;;;;;5135624;27;20095;-63
2023/08/21 08:36:26;;;;;;;4.95;0.98;;;23.20;99.90;;;;;;5134452;27;20070;-62
2023/08/21 08:38:52;;;;;;;3.45;1.05;;;23.30;99.90;;;;;;5141188;27;20042;-62
2023/08/21 08:41:42;;;;;;;4.78;1.10;;;23.40;99.90;;;;;;5153089;27;20080;-61
2023/08/21 08:44:08;;;;;;;5.57;1.45;;;23.50;99.90;;;;;;5114671;27;20083;-63
2023/08/21 08:46:35;;;;;;;5.93;1.00;;;23.40;99.90;;;;;;5134547;27;20050;-61
2023/08/21 08:49:02;;;;;;;3.22;1.63;;;23.50;99.90;;;;;;5153003;27;20108;-62
2023/08/21 08:51:30;;;;;;;4.82;1.10;;;23.60;99.90;;;;;;5154224;27;20071;-61
2023/08/21 08:53:57;;;;;;;2.60;0.73;;;23.70;99.90;;;;;;5134974;27;20041;-62
2023/08/21 08:56:23;;;;;;;3.55;1.30;;;23.90;99.90;;;;;;5116054;27;20054;-62
2023/08/21 08:58:49;;;;;;;3.40;1.25;;;23.80;99.90;;;;;;5144634;27;20042;-62
2023/08/21 09:01:15;;;;;;;3.60;1.10;;;23.90;99.90;;;;;;5123884;27;20047;-62
2023/08/21 09:03:40;;;;;;;3.72;1.48;;;23.90;99.90;;;;;;5133414;27;20039;-61
2023/08/21 09:06:06;;;;;;;4.43;1.52;;;23.90;99.90;;;;;;5138194;27;20385;-61
2023/08/21 09:08:32;;;;;;;4.13;1.50;;;23.90;99.90;;;;;;5141822;27;20064;-63
2023/08/21 09:11:02;;;;;;;6.95;1.77;;;24.20;99.90;;;;;;5134755;27;20046;-62
2023/08/21 09:13:27;;;;;;;5.28;1.40;;;24.20;99.90;;;;;;5116650;27;20043;-61
2023/08/21 09:15:55;;;;;;;4.03;0.95;;;24.30;99.90;;;;;;5122312;27;20038;-62
2023/08/21 09:18:21;;;;;;;3.38;1.10;;;24.40;99.90;;;;;;5114465;27;20043;-62
2023/08/21 09:20:48;;;;;;;3.67;1.17;;;24.40;99.90;;;;;;5114957;27;20054;-63
2023/08/21 09:23:18;;;;;;;3.17;1.13;;;24.40;99.90;;;;;;5114751;27;20119;-62
2023/08/21 09:25:47;;;;;;;3.85;1.20;;;24.60;99.90;;;;;;5134029;27;20039;-62
2023/08/21 09:28:13;;;;;;;4.28;1.60;;;24.60;99.90;;;;;;5117274;27;20089;-62
2023/08/21 09:30:49;;;;;;;3.80;1.30;;;24.60;99.90;;;;;;5115250;27;20070;-62
2023/08/21 09:33:19;;;;;;;4.25;1.15;;;24.70;99.60;;;;;;5135865;27;20432;-62
2023/08/21 09:35:45;;;;;;;2.20;1.00;;;24.70;99.90;;;;;;5115169;27;20066;-62
2023/08/21 09:38:11;;;;;;;3.47;1.05;;;24.90;99.90;;;;;;5119632;27;20485;-62
2023/08/21 09:40:53;;;;;;;4.82;1.52;;;24.90;99.20;;;;;;5111918;27;20045;-62
2023/08/21 09:43:20;;;;;;;3.45;1.10;;;25.10;98.70;;;;;;5116277;27;20507;-62
2023/08/21 09:45:48;;;;;;;3.13;1.02;;;25.20;99.30;;;;;;5114100;27;20082;-63
2023/08/21 09:48:14;;;;;;;3.17;1.40;;;25.50;99.90;;;;;;5129066;27;20066;-62
2023/08/21 09:50:42;;;;;;;3.40;1.55;;;25.60;99.60;;;;;;5130200;27;20035;-61
2023/08/21 09:53:09;;;;;;;5.25;1.27;;;25.60;99.00;;;;;;5097317;27;20058;-62
2023/08/21 09:55:35;;;;;;;2.95;1.40;;;25.80;98.60;;;;;;5136879;27;20547;-62
2023/08/21 09:58:02;;;;;;;4.82;1.13;;;25.70;97.10;;;;;;5137830;27;20037;-62
2023/08/21 10:00:31;;;;;;;6.57;1.42;;;25.90;97.50;;;;;;5113907;27;20039;-62
2023/08/21 10:03:02;;;;;;;2.60;1.10;;;25.80;96.10;;;;;;5114756;27;20034;-62
2023/08/21 10:05:28;;;;;;;6.20;1.30;;;26.00;98.30;;;;;;5132541;27;20029;-62
2023/08/21 10:07:55;;;;;;;3.72;1.23;;;26.00;96.40;;;;;;5113300;27;20292;-63
2023/08/21 10:10:21;;;;;;;4.00;1.17;;;25.90;95.30;;;;;;5133774;27;20045;-63
2023/08/21 10:12:48;;;;;;;4.35;1.20;;;25.80;94.20;;;;;;5116319;27;20035;-62
2023/08/21 10:15:15;;;;;;;7.35;1.58;;;25.90;93.80;;;;;;5113766;27;20437;-62
2023/08/21 10:17:43;;;;;;;3.80;1.50;;;25.80;93.70;;;;;;5115645;27;20057;-62
2023/08/21 10:20:09;;;;;;;8.02;1.42;;;25.90;94.90;;;;;;5116125;27;20086;-62
2023/08/21 10:22:46;;;;;;;5.05;1.48;;;26.20;96.00;;;;;;5133491;27;20050;-62
2023/08/21 10:25:23;;;;;;;3.33;1.38;;;26.50;94.70;;;;;;5137673;27;20031;-62
2023/08/21 10:27:54;;;;;;;7.55;1.67;;;26.50;93.30;;;;;;5113670;27;20043;-61
2023/08/21 10:30:22;;;;;;;5.75;1.33;;;26.60;93.50;;;;;;5135263;27;20039;-63
2023/08/21 10:32:49;;;;;;;5.88;1.80;;;26.40;92.90;;;;;;5112928;27;20071;-62
2023/08/21 10:35:18;;;;;;;3.28;1.80;;;26.60;94.30;;;;;;5104535;27;20042;-62
2023/08/21 10:38:17;;;;;;;3.70;1.13;;;26.90;93.90;;;;;;5121079;27;20082;-62
2023/08/21 10:41:08;;;;;;;4.47;1.17;;;27.00;92.20;;;;;;5129357;27;20050;-62
2023/08/21 10:43:45;;;;;;;5.72;1.17;;;26.80;91.10;;;;;;5135486;27;20138;-62
2023/08/21 10:46:11;;;;;;;5.28;1.38;;;27.00;92.00;;;;;;5133992;27;20046;-62
2023/08/21 10:48:38;;;;;;;3.58;1.38;;;27.10;90.90;;;;;;5116123;27;20070;-62
2023/08/21 10:51:05;;;;;;;3.08;1.25;;;27.10;90.70;;;;;;5115630;27;20072;-62
2023/08/21 10:53:33;;;;;;;3.95;1.20;;;26.90;90.80;;;;;;5113559;27;20470;-63
2023/08/21 10:56:05;;;;;;;5.03;1.58;;;27.20;92.00;;;;;;5115795;27;20050;-63
2023/08/21 10:58:47;;;;;;;3.55;1.55;;;27.30;90.70;;;;;;5118429;27;20066;-62
2023/08/21 11:01:14;;;;;;;4.53;1.42;;;27.30;91.30;;;;;;5134656;27;20787;-62
2023/08/21 11:03:40;;;;;;;5.18;1.25;;;27.40;90.80;;;;;;5142122;27;20034;-62
2023/08/21 11:06:08;;;;;;;5.32;1.30;;;27.40;91.40;;;;;;5138266;27;20043;-62
2023/08/21 11:08:34;;;;;;;6.47;1.40;;;27.40;90.40;;;;;;5115908;27;20510;-62
2023/08/21 11:11:05;;;;;;;4.18;1.20;;;27.50;90.90;;;;;;5113113;27;20054;-63
2023/08/21 11:13:31;;;;;;;2.63;0.93;;;27.30;90.60;;;;;;5119543;27;20039;-63
2023/08/21 11:15:59;;;;;;;4.43;1.15;;;27.30;91.20;;;;;;5149238;27;20030;-63
2023/08/21 11:18:33;;;;;;;2.83;0.95;;;27.50;91.30;;;;;;5151919;27;20053;-63
2023/08/21 11:21:08;;;;;;;5.93;1.48;;;27.70;91.10;;;;;;5099788;27;20051;-62
2023/08/21 11:23:36;;;;;;;5.28;1.50;;;27.60;91.50;;;;;;5117686;27;20490;-63
2023/08/21 11:26:03;;;;;;;7.20;1.95;;;27.60;91.30;;;;;;5123064;27;20050;-63
2023/08/21 11:28:29;;;;;;;6.18;1.52;;;27.70;91.70;;;;;;5140991;27;20039;-62
2023/08/21 11:30:56;;;;;;;4.03;1.35;;;27.70;91.30;;;;;;5117185;27;20042;-64
2023/08/21 11:33:22;;;;;;;4.80;1.50;;;27.50;91.50;;;;;;5122135;27;20047;-62
2023/08/21 11:35:49;;;;;;;4.25;1.55;;;27.20;91.80;;;;;;5138051;27;20514;-62
2023/08/21 11:38:20;;;;;;;6.45;1.90;;;26.60;92.40;;;;;;5116482;27;20064;-62
2023/08/21 11:41:12;;;;;;;6.43;1.80;;;26.60;93.00;;;;;;5145939;27;20091;-62
2023/08/21 11:43:42;;;;;;;3.05;1.40;;;26.60;92.90;;;;;;5149165;27;20310;-63
2023/08/21 11:46:11;;;;;;;8.35;1.67;;;26.60;93.60;;;;;;5153390;27;20077;-62
2023/08/21 11:48:40;;;;;;;5.65;1.60;;;26.60;92.80;;;;;;5136645;27;20463;-62
2023/08/21 11:51:09;;;;;;;4.70;1.40;;;26.60;93.10;;;;;;5144650;27;20480;-63
2023/08/21 11:53:36;;;;;;;5.53;1.33;;;26.90;93.40;;;;;;5116442;27;20432;-62
2023/08/21 11:56:02;;;;;;;4.25;1.27;;;26.80;92.80;;;;;;5120606;27;20038;-62
2023/08/21 11:58:28;;;;;;;3.80;1.30;;;26.80;92.40;;;;;;5105417;27;20055;-62
2023/08/21 12:00:54;;;;;;;4.45;1.00;;;26.80;91.80;;;;;;5122025;27;20493;-63
2023/08/21 12:03:20;;;;;;;6.25;1.13;;;26.60;91.50;;;;;;5134725;27;20092;-62
2023/08/21 12:05:45;;;;;;;5.93;1.52;;;26.50;91.30;;;;;;5135288;27;20039;-62
2023/08/21 12:08:11;;;;;;;4.28;0.95;;;26.40;91.10;;;;;;5119923;27;20043;-63
2023/08/21 12:10:37;;;;;;;3.80;1.10;;;26.30;90.80;;;;;;5116578;27;20027;-63
2023/08/21 12:13:03;;;;;;;6.15;1.10;;;26.40;91.20;;;;;;5120258;27;20092;-63
2023/08/21 12:15:28;;;;;;;3.85;0.95;;;26.30;91.00;;;;;;5138053;27;20034;-63
2023/08/21 12:17:54;;;;;;;3.92;1.23;;;26.40;90.80;;;;;;5120963;27;20034;-62
2023/08/21 12:20:20;;;;;;;4.22;1.00;;;26.40;91.10;;;;;;5136696;27;20050;-62
2023/08/21 12:22:46;;;;;;;4.65;0.75;;;26.30;90.00;;;;;;5135695;27;20042;-63
2023/08/21 12:25:13;;;;;;;3.78;1.00;;;26.30;90.70;;;;;;5119429;27;20443;-64
2023/08/21 12:27:39;;;;;;;3.28;0.90;;;26.10;89.50;;;;;;5154047;27;20081;-62
2023/08/21 12:30:07;;;;;;;4.28;1.00;;;26.00;90.10;;;;;;5119603;27;20073;-62
2023/08/21 12:32:33;;;;;;;3.78;1.00;;;26.10;90.50;;;;;;5134018;27;20088;-62
2023/08/21 12:34:58;;;;;;;2.95;0.88;;;26.00;89.90;;;;;;5123791;27;20039;-62
2023/08/21 12:37:25;;;;;;;5.97;1.10;;;25.90;90.30;;;;;;5117913;27;20047;-62
2023/08/21 12:39:51;;;;;;;5.13;0.90;;;25.80;90.50;;;;;;5125538;27;20049;-63
2023/08/21 12:42:16;;;;;;;4.07;1.00;;;25.90;90.70;;;;;;5133937;27;20042;-64
2023/08/21 12:44:42;;;;;;;4.78;0.90;;;25.80;90.30;;;;;;5151999;27;20106;-62